Cardiff, Maryland
Current Conditions -  °F | °C
As of 5:33 AM on Tuesday 27 Jan 2015 (Local Time) from KMTN Reporting Station
Overcast Overcast  
Wind Chill: 22°   Ceiling: 3200
Heat Index: 30°   Visibility: 10mi
Dew Point: 27°   Wind: 9mph
Humidity: 86%   Direction: 310°NW
Pressure: 29.76"   Gusts: NA
Location:  39.7064°N, 76.3071°W
Report Text: KMTN 271033Z AUTO 31008KT 10SM OVC032 M01/M03 A2976 RMK AO2
Loading
Personal Weather Stations






























Interactive Weather Map New forecast layout! Learn more

10-Day Weather Forecast

Advertisements
Track Severe Weather on mobile